sensor_id;sensor_type;location;lat;lon;timestamp;P1;durP1;ratioP1;P2;durP2;ratioP2
3487;SDS011;38546;48.170;11.724;2023-07-13T00:01:24;6.83;;;5.47;;
3487;SDS011;38546;48.170;11.724;2023-07-13T00:04:13;8.43;;;5.60;;
3487;SDS011;38546;48.170;11.724;2023-07-13T00:07:03;6.10;;;5.50;;
3487;SDS011;38546;48.170;11.724;2023-07-13T00:09:53;6.63;;;5.30;;
3487;SDS011;38546;48.170;11.724;2023-07-13T00:12:42;6.47;;;5.53;;
3487;SDS011;38546;48.170;11.724;2023-07-13T00:15:33;11.13;;;5.20;;
3487;SDS011;38546;48.170;11.724;2023-07-13T00:18:23;7.53;;;5.50;;
3487;SDS011;38546;48.170;11.724;2023-07-13T00:21:13;6.13;;;4.80;;
3487;SDS011;38546;48.170;11.724;2023-07-13T00:24:03;7.30;;;5.27;;
3487;SDS011;38546;48.170;11.724;2023-07-13T00:26:54;8.40;;;5.40;;
3487;SDS011;38546;48.170;11.724;2023-07-13T00:29:44;6.57;;;5.27;;
3487;SDS011;38546;48.170;11.724;2023-07-13T00:32:33;6.40;;;5.10;;
3487;SDS011;38546;48.170;11.724;2023-07-13T00:35:25;7.93;;;5.90;;
3487;SDS011;38546;48.170;11.724;2023-07-13T00:38:15;8.47;;;5.83;;
3487;SDS011;38546;48.170;11.724;2023-07-13T00:41:04;6.37;;;5.27;;
3487;SDS011;38546;48.170;11.724;2023-07-13T00:43:53;8.67;;;5.70;;
3487;SDS011;38546;48.170;11.724;2023-07-13T00:46:43;9.17;;;5.60;;
3487;SDS011;38546;48.170;11.724;2023-07-13T00:49:35;4.67;;;4.27;;
3487;SDS011;38546;48.170;11.724;2023-07-13T00:52:25;10.30;;;5.50;;
3487;SDS011;38546;48.170;11.724;2023-07-13T00:55:15;5.23;;;4.73;;
3487;SDS011;38546;48.170;11.724;2023-07-13T00:58:06;7.30;;;4.50;;
3487;SDS011;38546;48.170;11.724;2023-07-13T01:00:55;4.87;;;4.47;;
3487;SDS011;38546;48.170;11.724;2023-07-13T01:03:44;5.70;;;4.53;;
3487;SDS011;38546;48.170;11.724;2023-07-13T01:06:36;6.33;;;4.80;;
3487;SDS011;38546;48.170;11.724;2023-07-13T01:09:26;5.00;;;4.20;;
3487;SDS011;38546;48.170;11.724;2023-07-13T01:12:16;4.33;;;3.90;;
3487;SDS011;38546;48.170;11.724;2023-07-13T01:15:33;4.60;;;4.20;;
3487;SDS011;38546;48.170;11.724;2023-07-13T01:18:44;4.33;;;3.93;;
3487;SDS011;38546;48.170;11.724;2023-07-13T01:21:33;6.17;;;3.83;;
3487;SDS011;38546;48.170;11.724;2023-07-13T01:24:23;5.30;;;4.50;;
3487;SDS011;38546;48.170;11.724;2023-07-13T01:27:13;4.97;;;4.47;;
3487;SDS011;38546;48.170;11.724;2023-07-13T01:30:05;5.20;;;4.40;;
3487;SDS011;38546;48.170;11.724;2023-07-13T01:32:55;5.60;;;4.97;;
3487;SDS011;38546;48.170;11.724;2023-07-13T01:35:45;6.30;;;4.50;;
3487;SDS011;38546;48.170;11.724;2023-07-13T01:38:35;8.00;;;4.80;;
3487;SDS011;38546;48.170;11.724;2023-07-13T01:41:25;5.10;;;4.57;;
3487;SDS011;38546;48.170;11.724;2023-07-13T01:44:14;6.13;;;5.30;;
3487;SDS011;38546;48.170;11.724;2023-07-13T01:47:05;4.20;;;3.80;;
3487;SDS011;38546;48.170;11.724;2023-07-13T01:49:54;6.50;;;4.50;;
3487;SDS011;38546;48.170;11.724;2023-07-13T01:52:43;6.07;;;4.50;;
3487;SDS011;38546;48.170;11.724;2023-07-13T01:55:33;6.57;;;5.73;;
3487;SDS011;38546;48.170;11.724;2023-07-13T01:58:24;6.07;;;4.13;;
3487;SDS011;38546;48.170;11.724;2023-07-13T02:01:13;7.70;;;4.73;;
3487;SDS011;38546;48.170;11.724;2023-07-13T02:04:03;8.07;;;4.90;;
3487;SDS011;38546;48.170;11.724;2023-07-13T02:06:53;6.07;;;5.43;;
3487;SDS011;38546;48.170;11.724;2023-07-13T02:09:44;8.07;;;5.37;;
3487;SDS011;38546;48.170;11.724;2023-07-13T02:12:34;7.20;;;5.60;;
3487;SDS011;38546;48.170;11.724;2023-07-13T02:15:24;7.67;;;5.90;;
3487;SDS011;38546;48.170;11.724;2023-07-13T02:18:13;5.50;;;5.00;;
3487;SDS011;38546;48.170;11.724;2023-07-13T02:21:05;5.10;;;4.70;;
3487;SDS011;38546;48.170;11.724;2023-07-13T02:23:55;5.57;;;4.83;;
3487;SDS011;38546;48.170;11.724;2023-07-13T02:26:46;6.37;;;5.43;;
3487;SDS011;38546;48.170;11.724;2023-07-13T02:29:35;6.73;;;5.43;;
3487;SDS011;38546;48.170;11.724;2023-07-13T02:32:25;6.50;;;5.37;;
3487;SDS011;38546;48.170;11.724;2023-07-13T02:35:15;7.93;;;6.13;;
3487;SDS011;38546;48.170;11.724;2023-07-13T02:38:06;5.70;;;4.73;;
3487;SDS011;38546;48.170;11.724;2023-07-13T02:40:56;5.03;;;4.53;;
3487;SDS011;38546;48.170;11.724;2023-07-13T02:43:45;6.00;;;5.40;;
3487;SDS011;38546;48.170;11.724;2023-07-13T02:46:34;5.30;;;4.80;;
3487;SDS011;38546;48.170;11.724;2023-07-13T02:49:25;5.57;;;4.93;;
3487;SDS011;38546;48.170;11.724;2023-07-13T02:52:14;7.20;;;5.50;;
3487;SDS011;38546;48.170;11.724;2023-07-13T02:55:05;11.80;;;6.67;;
3487;SDS011;38546;48.170;11.724;2023-07-13T02:57:54;7.03;;;6.33;;
3487;SDS011;38546;48.170;11.724;2023-07-13T03:00:44;7.83;;;7.03;;
3487;SDS011;38546;48.170;11.724;2023-07-13T03:03:37;10.70;;;7.63;;
3487;SDS011;38546;48.170;11.724;2023-07-13T03:06:26;9.60;;;7.40;;
3487;SDS011;38546;48.170;11.724;2023-07-13T03:09:19;11.20;;;7.50;;
3487;SDS011;38546;48.170;11.724;2023-07-13T03:12:08;14.40;;;7.13;;
3487;SDS011;38546;48.170;11.724;2023-07-13T03:14:57;10.53;;;7.60;;
3487;SDS011;38546;48.170;11.724;2023-07-13T03:17:46;11.13;;;7.80;;
3487;SDS011;38546;48.170;11.724;2023-07-13T03:20:36;15.30;;;8.87;;
3487;SDS011;38546;48.170;11.724;2023-07-13T03:23:25;9.70;;;7.50;;
3487;SDS011;38546;48.170;11.724;2023-07-13T03:26:16;11.73;;;8.60;;
3487;SDS011;38546;48.170;11.724;2023-07-13T03:29:09;9.83;;;7.37;;
3487;SDS011;38546;48.170;11.724;2023-07-13T03:31:58;11.63;;;9.10;;
3487;SDS011;38546;48.170;11.724;2023-07-13T03:34:47;10.60;;;7.90;;
3487;SDS011;38546;48.170;11.724;2023-07-13T03:37:36;13.13;;;7.77;;
3487;SDS011;38546;48.170;11.724;2023-07-13T03:40:30;17.00;;;8.07;;
3487;SDS011;38546;48.170;11.724;2023-07-13T03:43:20;13.07;;;8.30;;
3487;SDS011;38546;48.170;11.724;2023-07-13T03:46:10;14.70;;;8.77;;
3487;SDS011;38546;48.170;11.724;2023-07-13T03:49:01;11.80;;;7.40;;
3487;SDS011;38546;48.170;11.724;2023-07-13T03:51:54;12.60;;;7.63;;
3487;SDS011;38546;48.170;11.724;2023-07-13T03:54:43;15.10;;;8.30;;
3487;SDS011;38546;48.170;11.724;2023-07-13T03:57:32;10.47;;;7.60;;
3487;SDS011;38546;48.170;11.724;2023-07-13T04:00:23;14.37;;;9.00;;
3487;SDS011;38546;48.170;11.724;2023-07-13T04:03:15;13.37;;;9.10;;
3487;SDS011;38546;48.170;11.724;2023-07-13T04:06:06;11.00;;;8.80;;
3487;SDS011;38546;48.170;11.724;2023-07-13T04:09:15;11.80;;;7.30;;
3487;SDS011;38546;48.170;11.724;2023-07-13T04:12:05;10.00;;;7.70;;
3487;SDS011;38546;48.170;11.724;2023-07-13T04:14:55;8.60;;;7.20;;
3487;SDS011;38546;48.170;11.724;2023-07-13T04:17:44;9.10;;;7.23;;
3487;SDS011;38546;48.170;11.724;2023-07-13T04:20:33;14.93;;;7.30;;
3487;SDS011;38546;48.170;11.724;2023-07-13T04:23:23;11.10;;;7.73;;
3487;SDS011;38546;48.170;11.724;2023-07-13T04:26:12;9.13;;;6.43;;
3487;SDS011;38546;48.170;11.724;2023-07-13T04:29:02;12.40;;;7.47;;
3487;SDS011;38546;48.170;11.724;2023-07-13T04:31:52;12.03;;;6.93;;
3487;SDS011;38546;48.170;11.724;2023-07-13T04:34:41;12.93;;;7.10;;
3487;SDS011;38546;48.170;11.724;2023-07-13T04:37:30;11.10;;;7.70;;
3487;SDS011;38546;48.170;11.724;2023-07-13T04:40:20;9.20;;;7.00;;
3487;SDS011;38546;48.170;11.724;2023-07-13T04:43:09;18.00;;;8.37;;
3487;SDS011;38546;48.170;11.724;2023-07-13T04:46:06;9.20;;;7.30;;
3487;SDS011;38546;48.170;11.724;2023-07-13T04:48:59;11.13;;;7.60;;
3487;SDS011;38546;48.170;11.724;2023-07-13T04:51:49;9.93;;;7.60;;
3487;SDS011;38546;48.170;11.724;2023-07-13T04:54:38;9.53;;;7.20;;
3487;SDS011;38546;48.170;11.724;2023-07-13T04:57:28;9.23;;;6.73;;
3487;SDS011;38546;48.170;11.724;2023-07-13T05:00:18;9.03;;;6.97;;
3487;SDS011;38546;48.170;11.724;2023-07-13T05:03:08;10.33;;;7.77;;
3487;SDS011;38546;48.170;11.724;2023-07-13T05:06:02;10.13;;;7.00;;
3487;SDS011;38546;48.170;11.724;2023-07-13T05:08:54;12.03;;;7.17;;
3487;SDS011;38546;48.170;11.724;2023-07-13T05:11:43;11.93;;;7.00;;
3487;SDS011;38546;48.170;11.724;2023-07-13T05:14:32;13.07;;;7.13;;
3487;SDS011;38546;48.170;11.724;2023-07-13T05:17:22;8.90;;;7.27;;
3487;SDS011;38546;48.170;11.724;2023-07-13T05:20:11;9.97;;;6.90;;
3487;SDS011;38546;48.170;11.724;2023-07-13T05:23:01;11.00;;;7.47;;
3487;SDS011;38546;48.170;11.724;2023-07-13T05:25:50;12.77;;;6.97;;
3487;SDS011;38546;48.170;11.724;2023-07-13T05:28:40;8.50;;;5.90;;
3487;SDS011;38546;48.170;11.724;2023-07-13T05:31:29;8.80;;;6.90;;
3487;SDS011;38546;48.170;11.724;2023-07-13T05:34:18;7.83;;;6.43;;
3487;SDS011;38546;48.170;11.724;2023-07-13T05:37:07;8.73;;;7.27;;
3487;SDS011;38546;48.170;11.724;2023-07-13T05:39:57;8.00;;;6.00;;
3487;SDS011;38546;48.170;11.724;2023-07-13T05:42:46;6.67;;;5.73;;
3487;SDS011;38546;48.170;11.724;2023-07-13T05:45:36;8.43;;;6.50;;
3487;SDS011;38546;48.170;11.724;2023-07-13T05:48:25;10.70;;;6.00;;
3487;SDS011;38546;48.170;11.724;2023-07-13T05:51:14;9.63;;;6.13;;
3487;SDS011;38546;48.170;11.724;2023-07-13T05:54:03;6.57;;;5.80;;
3487;SDS011;38546;48.170;11.724;2023-07-13T05:56:52;7.63;;;6.40;;
3487;SDS011;38546;48.170;11.724;2023-07-13T05:59:42;17.17;;;7.30;;
3487;SDS011;38546;48.170;11.724;2023-07-13T06:02:31;9.10;;;6.20;;
3487;SDS011;38546;48.170;11.724;2023-07-13T06:05:20;7.53;;;6.53;;
3487;SDS011;38546;48.170;11.724;2023-07-13T06:08:10;7.60;;;6.77;;
3487;SDS011;38546;48.170;11.724;2023-07-13T06:11:03;19.73;;;6.77;;
3487;SDS011;38546;48.170;11.724;2023-07-13T06:13:55;10.03;;;6.50;;
3487;SDS011;38546;48.170;11.724;2023-07-13T06:16:44;7.97;;;6.30;;
3487;SDS011;38546;48.170;11.724;2023-07-13T06:19:34;10.40;;;6.60;;
3487;SDS011;38546;48.170;11.724;2023-07-13T06:22:23;6.60;;;5.87;;
3487;SDS011;38546;48.170;11.724;2023-07-13T06:25:13;6.80;;;6.10;;
3487;SDS011;38546;48.170;11.724;2023-07-13T06:28:02;10.53;;;6.60;;
3487;SDS011;38546;48.170;11.724;2023-07-13T06:30:52;6.47;;;5.43;;
3487;SDS011;38546;48.170;11.724;2023-07-13T06:33:41;8.43;;;5.77;;
3487;SDS011;38546;48.170;11.724;2023-07-13T06:36:30;7.37;;;5.27;;
3487;SDS011;38546;48.170;11.724;2023-07-13T06:39:19;6.20;;;4.83;;
3487;SDS011;38546;48.170;11.724;2023-07-13T06:42:08;6.33;;;5.73;;
3487;SDS011;38546;48.170;11.724;2023-07-13T06:44:57;10.73;;;4.80;;
3487;SDS011;38546;48.170;11.724;2023-07-13T06:47:45;7.27;;;5.90;;
3487;SDS011;38546;48.170;11.724;2023-07-13T06:50:34;5.40;;;4.00;;
3487;SDS011;38546;48.170;11.724;2023-07-13T06:53:23;4.77;;;4.20;;
3487;SDS011;38546;48.170;11.724;2023-07-13T06:56:13;6.27;;;4.90;;
3487;SDS011;38546;48.170;11.724;2023-07-13T06:59:02;4.10;;;3.80;;
3487;SDS011;38546;48.170;11.724;2023-07-13T07:01:51;7.77;;;4.40;;
3487;SDS011;38546;48.170;11.724;2023-07-13T07:04:40;4.90;;;4.40;;
3487;SDS011;38546;48.170;11.724;2023-07-13T07:07:29;6.53;;;4.63;;
3487;SDS011;38546;48.170;11.724;2023-07-13T07:10:18;5.47;;;4.10;;
3487;SDS011;38546;48.170;11.724;2023-07-13T07:13:08;4.10;;;3.70;;
3487;SDS011;38546;48.170;11.724;2023-07-13T07:15:57;4.77;;;4.00;;
3487;SDS011;38546;48.170;11.724;2023-07-13T07:18:49;3.43;;;3.13;;
3487;SDS011;38546;48.170;11.724;2023-07-13T07:21:37;4.50;;;4.10;;
3487;SDS011;38546;48.170;11.724;2023-07-13T07:24:26;5.67;;;4.30;;
3487;SDS011;38546;48.170;11.724;2023-07-13T07:27:15;4.50;;;4.10;;
3487;SDS011;38546;48.170;11.724;2023-07-13T07:30:04;13.07;;;4.20;;
3487;SDS011;38546;48.170;11.724;2023-07-13T07:32:54;5.07;;;3.33;;
3487;SDS011;38546;48.170;11.724;2023-07-13T07:35:44;4.17;;;3.77;;
3487;SDS011;38546;48.170;11.724;2023-07-13T07:38:33;7.93;;;3.80;;
3487;SDS011;38546;48.170;11.724;2023-07-13T07:41:22;5.40;;;4.33;;
3487;SDS011;38546;48.170;11.724;2023-07-13T07:44:11;5.60;;;3.80;;
3487;SDS011;38546;48.170;11.724;2023-07-13T07:47:00;4.97;;;3.90;;
3487;SDS011;38546;48.170;11.724;2023-07-13T07:49:49;4.83;;;2.93;;
3487;SDS011;38546;48.170;11.724;2023-07-13T07:52:39;5.33;;;3.33;;
3487;SDS011;38546;48.170;11.724;2023-07-13T07:55:28;4.90;;;3.30;;
3487;SDS011;38546;48.170;11.724;2023-07-13T07:58:17;6.53;;;3.70;;
3487;SDS011;38546;48.170;11.724;2023-07-13T08:01:06;4.63;;;3.30;;
3487;SDS011;38546;48.170;11.724;2023-07-13T08:03:56;2.77;;;2.60;;
3487;SDS011;38546;48.170;11.724;2023-07-13T08:06:45;6.27;;;3.70;;
3487;SDS011;38546;48.170;11.724;2023-07-13T08:09:34;3.90;;;3.60;;
3487;SDS011;38546;48.170;11.724;2023-07-13T08:12:23;3.70;;;3.10;;
3487;SDS011;38546;48.170;11.724;2023-07-13T08:15:14;6.87;;;4.00;;
3487;SDS011;38546;48.170;11.724;2023-07-13T08:18:05;5.87;;;3.93;;
3487;SDS011;38546;48.170;11.724;2023-07-13T08:20:56;9.40;;;3.63;;
3487;SDS011;38546;48.170;11.724;2023-07-13T08:23:47;11.27;;;3.83;;
3487;SDS011;38546;48.170;11.724;2023-07-13T08:26:36;5.53;;;3.40;;
3487;SDS011;38546;48.170;11.724;2023-07-13T08:29:25;3.50;;;3.30;;
3487;SDS011;38546;48.170;11.724;2023-07-13T08:32:14;5.83;;;3.40;;
3487;SDS011;38546;48.170;11.724;2023-07-13T08:35:05;11.13;;;3.77;;
3487;SDS011;38546;48.170;11.724;2023-07-13T08:37:55;6.57;;;4.27;;
3487;SDS011;38546;48.170;11.724;2023-07-13T08:40:45;4.10;;;3.63;;
3487;SDS011;38546;48.170;11.724;2023-07-13T08:43:41;4.40;;;4.00;;
3487;SDS011;38546;48.170;11.724;2023-07-13T08:46:37;3.90;;;3.60;;
3487;SDS011;38546;48.170;11.724;2023-07-13T08:49:29;7.80;;;6.30;;
3487;SDS011;38546;48.170;11.724;2023-07-13T08:52:26;7.50;;;4.90;;
3487;SDS011;38546;48.170;11.724;2023-07-13T08:55:28;5.37;;;3.50;;
3487;SDS011;38546;48.170;11.724;2023-07-13T08:58:22;5.73;;;4.60;;
3487;SDS011;38546;48.170;11.724;2023-07-13T09:01:22;5.83;;;3.83;;
3487;SDS011;38546;48.170;11.724;2023-07-13T09:06:06;6.07;;;3.90;;
3487;SDS011;38546;48.170;11.724;2023-07-13T09:09:02;5.83;;;3.50;;
3487;SDS011;38546;48.170;11.724;2023-07-13T09:12:15;3.33;;;2.70;;
3487;SDS011;38546;48.170;11.724;2023-07-13T09:15:26;3.30;;;3.10;;
3487;SDS011;38546;48.170;11.724;2023-07-13T09:18:45;3.67;;;2.97;;
3487;SDS011;38546;48.170;11.724;2023-07-13T09:21:39;3.20;;;2.90;;
3487;SDS011;38546;48.170;11.724;2023-07-13T09:24:41;2.90;;;2.70;;
3487;SDS011;38546;48.170;11.724;2023-07-13T09:29:31;2.70;;;2.50;;
3487;SDS011;38546;48.170;11.724;2023-07-13T09:32:26;3.03;;;2.63;;
3487;SDS011;38546;48.170;11.724;2023-07-13T09:35:22;3.67;;;2.83;;
3487;SDS011;38546;48.170;11.724;2023-07-13T09:38:18;4.53;;;2.50;;
3487;SDS011;38546;48.170;11.724;2023-07-13T09:41:26;3.07;;;2.83;;
3487;SDS011;38546;48.170;11.724;2023-07-13T09:45:28;6.70;;;3.00;;
3487;SDS011;38546;48.170;11.724;2023-07-13T09:48:19;3.93;;;2.80;;
3487;SDS011;38546;48.170;11.724;2023-07-13T09:51:13;2.87;;;2.67;;
3487;SDS011;38546;48.170;11.724;2023-07-13T09:54:04;3.83;;;2.50;;
3487;SDS011;38546;48.170;11.724;2023-07-13T09:56:54;4.13;;;2.53;;
3487;SDS011;38546;48.170;11.724;2023-07-13T09:59:47;3.60;;;2.40;;
3487;SDS011;38546;48.170;11.724;2023-07-13T10:02:39;4.40;;;2.60;;
3487;SDS011;38546;48.170;11.724;2023-07-13T10:05:37;2.37;;;2.17;;
3487;SDS011;38546;48.170;11.724;2023-07-13T10:08:30;3.00;;;2.37;;
3487;SDS011;38546;48.170;11.724;2023-07-13T10:11:26;2.70;;;2.50;;
3487;SDS011;38546;48.170;11.724;2023-07-13T10:14:20;3.83;;;2.13;;
3487;SDS011;38546;48.170;11.724;2023-07-13T10:17:17;2.80;;;2.30;;
3487;SDS011;38546;48.170;11.724;2023-07-13T10:20:19;3.87;;;2.60;;
3487;SDS011;38546;48.170;11.724;2023-07-13T10:23:12;5.13;;;3.07;;
3487;SDS011;38546;48.170;11.724;2023-07-13T10:26:12;4.70;;;3.07;;
3487;SDS011;38546;48.170;11.724;2023-07-13T10:29:08;3.47;;;2.80;;
3487;SDS011;38546;48.170;11.724;2023-07-13T10:32:04;3.70;;;2.20;;
3487;SDS011;38546;48.170;11.724;2023-07-13T10:35:00;3.40;;;2.40;;
3487;SDS011;38546;48.170;11.724;2023-07-13T10:37:52;2.77;;;2.57;;
3487;SDS011;38546;48.170;11.724;2023-07-13T10:41:10;3.17;;;2.60;;
3487;SDS011;38546;48.170;11.724;2023-07-13T10:44:06;4.73;;;2.30;;
3487;SDS011;38546;48.170;11.724;2023-07-13T10:47:08;3.80;;;2.23;;
3487;SDS011;38546;48.170;11.724;2023-07-13T10:50:03;2.50;;;2.30;;
3487;SDS011;38546;48.170;11.724;2023-07-13T10:52:54;2.17;;;2.07;;
3487;SDS011;38546;48.170;11.724;2023-07-13T10:59:25;3.80;;;2.50;;
3487;SDS011;38546;48.170;11.724;2023-07-13T11:02:25;4.40;;;2.53;;
3487;SDS011;38546;48.170;11.724;2023-07-13T11:05:25;2.67;;;2.47;;
3487;SDS011;38546;48.170;11.724;2023-07-13T11:08:32;6.40;;;2.43;;
3487;SDS011;38546;48.170;11.724;2023-07-13T11:11:34;4.83;;;2.40;;
3487;SDS011;38546;48.170;11.724;2023-07-13T11:14:31;7.53;;;2.53;;
3487;SDS011;38546;48.170;11.724;2023-07-13T11:17:36;3.67;;;2.63;;
3487;SDS011;38546;48.170;11.724;2023-07-13T11:20:40;2.60;;;2.40;;
3487;SDS011;38546;48.170;11.724;2023-07-13T11:23:31;2.33;;;2.20;;
3487;SDS011;38546;48.170;11.724;2023-07-13T11:36:06;4.73;;;2.60;;
3487;SDS011;38546;48.170;11.724;2023-07-13T11:39:18;5.23;;;2.50;;
3487;SDS011;38546;48.170;11.724;2023-07-13T11:42:23;6.63;;;2.40;;
3487;SDS011;38546;48.170;11.724;2023-07-13T11:45:19;9.40;;;2.97;;
3487;SDS011;38546;48.170;11.724;2023-07-13T11:48:21;4.10;;;2.90;;
3487;SDS011;38546;48.170;11.724;2023-07-13T11:51:21;2.90;;;2.60;;
3487;SDS011;38546;48.170;11.724;2023-07-13T11:54:24;2.63;;;2.30;;
3487;SDS011;38546;48.170;11.724;2023-07-13T12:00:47;5.00;;;3.10;;
3487;SDS011;38546;48.170;11.724;2023-07-13T12:03:37;4.67;;;2.60;;
3487;SDS011;38546;48.170;11.724;2023-07-13T12:06:33;7.80;;;2.30;;
3487;SDS011;38546;48.170;11.724;2023-07-13T12:09:30;3.80;;;2.80;;
3487;SDS011;38546;48.170;11.724;2023-07-13T12:12:22;6.03;;;2.30;;
3487;SDS011;38546;48.170;11.724;2023-07-13T12:15:12;7.00;;;2.33;;
3487;SDS011;38546;48.170;11.724;2023-07-13T12:18:02;3.80;;;2.67;;
3487;SDS011;38546;48.170;11.724;2023-07-13T12:20:57;2.47;;;2.27;;
3487;SDS011;38546;48.170;11.724;2023-07-13T12:23:48;2.43;;;2.23;;
3487;SDS011;38546;48.170;11.724;2023-07-13T12:26:38;2.67;;;2.43;;
3487;SDS011;38546;48.170;11.724;2023-07-13T12:29:28;2.67;;;2.47;;
3487;SDS011;38546;48.170;11.724;2023-07-13T12:32:17;3.73;;;2.77;;
3487;SDS011;38546;48.170;11.724;2023-07-13T12:35:14;5.37;;;2.70;;
3487;SDS011;38546;48.170;11.724;2023-07-13T12:38:07;5.90;;;2.90;;
3487;SDS011;38546;48.170;11.724;2023-07-13T12:40:59;4.13;;;2.40;;
3487;SDS011;38546;48.170;11.724;2023-07-13T12:43:52;3.00;;;2.70;;
3487;SDS011;38546;48.170;11.724;2023-07-13T12:46:51;3.00;;;2.80;;
3487;SDS011;38546;48.170;11.724;2023-07-13T12:49:59;3.00;;;2.70;;
3487;SDS011;38546;48.170;11.724;2023-07-13T12:52:53;8.67;;;3.03;;
3487;SDS011;38546;48.170;11.724;2023-07-13T12:55:53;2.90;;;2.70;;
3487;SDS011;38546;48.170;11.724;2023-07-13T12:58:49;2.77;;;2.57;;
3487;SDS011;38546;48.170;11.724;2023-07-13T13:01:45;4.43;;;2.67;;
3487;SDS011;38546;48.170;11.724;2023-07-13T13:04:38;4.70;;;2.80;;
3487;SDS011;38546;48.170;11.724;2023-07-13T13:07:29;7.03;;;2.80;;
3487;SDS011;38546;48.170;11.724;2023-07-13T13:10:18;3.07;;;2.77;;
3487;SDS011;38546;48.170;11.724;2023-07-13T13:13:10;2.90;;;2.60;;
3487;SDS011;38546;48.170;11.724;2023-07-13T13:16:08;6.33;;;2.90;;
3487;SDS011;38546;48.170;11.724;2023-07-13T13:19:26;4.10;;;3.27;;
3487;SDS011;38546;48.170;11.724;2023-07-13T13:22:17;3.73;;;2.63;;
3487;SDS011;38546;48.170;11.724;2023-07-13T13:25:08;3.87;;;2.83;;
3487;SDS011;38546;48.170;11.724;2023-07-13T13:28:03;4.43;;;2.53;;
3487;SDS011;38546;48.170;11.724;2023-07-13T13:30:52;5.90;;;2.30;;
3487;SDS011;38546;48.170;11.724;2023-07-13T13:33:42;2.70;;;2.50;;
3487;SDS011;38546;48.170;11.724;2023-07-13T13:36:34;3.20;;;3.00;;
3487;SDS011;38546;48.170;11.724;2023-07-13T13:39:25;3.93;;;2.80;;
3487;SDS011;38546;48.170;11.724;2023-07-13T13:42:25;2.60;;;2.40;;
3487;SDS011;38546;48.170;11.724;2023-07-13T13:45:16;2.80;;;2.70;;
3487;SDS011;38546;48.170;11.724;2023-07-13T13:48:08;2.90;;;2.60;;
3487;SDS011;38546;48.170;11.724;2023-07-13T13:51:13;2.37;;;2.27;;
3487;SDS011;38546;48.170;11.724;2023-07-13T13:54:12;2.37;;;2.17;;
3487;SDS011;38546;48.170;11.724;2023-07-13T13:57:04;2.23;;;2.13;;
3487;SDS011;38546;48.170;11.724;2023-07-13T13:59:55;4.60;;;2.80;;
3487;SDS011;38546;48.170;11.724;2023-07-13T14:02:45;4.40;;;2.20;;
3487;SDS011;38546;48.170;11.724;2023-07-13T14:05:37;2.50;;;2.30;;
3487;SDS011;38546;48.170;11.724;2023-07-13T14:08:29;3.77;;;2.67;;
3487;SDS011;38546;48.170;11.724;2023-07-13T14:11:19;2.63;;;2.20;;
3487;SDS011;38546;48.170;11.724;2023-07-13T14:14:20;2.73;;;2.53;;
3487;SDS011;38546;48.170;11.724;2023-07-13T14:17:17;2.93;;;2.03;;
3487;SDS011;38546;48.170;11.724;2023-07-13T14:20:15;2.80;;;2.60;;
3487;SDS011;38546;48.170;11.724;2023-07-13T14:23:06;5.23;;;2.63;;
3487;SDS011;38546;48.170;11.724;2023-07-13T14:25:55;2.50;;;2.33;;
3487;SDS011;38546;48.170;11.724;2023-07-13T14:28:45;2.67;;;2.47;;
3487;SDS011;38546;48.170;11.724;2023-07-13T14:31:41;3.23;;;2.60;;
3487;SDS011;38546;48.170;11.724;2023-07-13T14:34:32;2.60;;;2.40;;
3487;SDS011;38546;48.170;11.724;2023-07-13T14:37:21;2.67;;;2.47;;
3487;SDS011;38546;48.170;11.724;2023-07-13T14:40:14;2.60;;;2.43;;
3487;SDS011;38546;48.170;11.724;2023-07-13T14:43:13;2.73;;;2.53;;
3487;SDS011;38546;48.170;11.724;2023-07-13T14:46:05;2.77;;;2.57;;
3487;SDS011;38546;48.170;11.724;2023-07-13T14:49:13;10.50;;;6.50;;
3487;SDS011;38546;48.170;11.724;2023-07-13T14:52:14;5.60;;;5.07;;
3487;SDS011;38546;48.170;11.724;2023-07-13T14:55:12;3.27;;;2.53;;
3487;SDS011;38546;48.170;11.724;2023-07-13T14:58:05;4.00;;;3.10;;
3487;SDS011;38546;48.170;11.724;2023-07-13T15:00:55;2.30;;;2.20;;
3487;SDS011;38546;48.170;11.724;2023-07-13T15:03:47;3.60;;;2.83;;
3487;SDS011;38546;48.170;11.724;2023-07-13T15:06:58;3.30;;;3.00;;
3487;SDS011;38546;48.170;11.724;2023-07-13T15:09:51;3.03;;;2.67;;
3487;SDS011;38546;48.170;11.724;2023-07-13T15:12:40;5.70;;;2.80;;
3487;SDS011;38546;48.170;11.724;2023-07-13T15:15:30;2.43;;;2.33;;
3487;SDS011;38546;48.170;11.724;2023-07-13T15:18:22;2.63;;;2.50;;
3487;SDS011;38546;48.170;11.724;2023-07-13T15:21:20;2.70;;;2.47;;
3487;SDS011;38546;48.170;11.724;2023-07-13T15:24:12;2.80;;;2.60;;
3487;SDS011;38546;48.170;11.724;2023-07-13T15:27:01;2.83;;;2.63;;
3487;SDS011;38546;48.170;11.724;2023-07-13T15:29:51;3.30;;;3.00;;
3487;SDS011;38546;48.170;11.724;2023-07-13T15:32:43;3.33;;;2.60;;
3487;SDS011;38546;48.170;11.724;2023-07-13T15:35:33;2.87;;;2.67;;
3487;SDS011;38546;48.170;11.724;2023-07-13T15:38:29;5.10;;;2.50;;
3487;SDS011;38546;48.170;11.724;2023-07-13T15:41:21;2.23;;;2.03;;
3487;SDS011;38546;48.170;11.724;2023-07-13T15:44:31;2.80;;;2.60;;
3487;SDS011;38546;48.170;11.724;2023-07-13T15:47:21;2.57;;;2.47;;
3487;SDS011;38546;48.170;11.724;2023-07-13T15:50:13;2.70;;;2.50;;
3487;SDS011;38546;48.170;11.724;2023-07-13T15:53:05;4.33;;;2.43;;
3487;SDS011;38546;48.170;11.724;2023-07-13T15:55:57;3.40;;;2.80;;
3487;SDS011;38546;48.170;11.724;2023-07-13T15:58:47;3.17;;;2.97;;
3487;SDS011;38546;48.170;11.724;2023-07-13T16:01:38;5.70;;;3.40;;
3487;SDS011;38546;48.170;11.724;2023-07-13T16:04:29;3.13;;;2.80;;
3487;SDS011;38546;48.170;11.724;2023-07-13T16:07:17;3.27;;;2.70;;
3487;SDS011;38546;48.170;11.724;2023-07-13T16:10:08;2.70;;;2.50;;
3487;SDS011;38546;48.170;11.724;2023-07-13T16:13:05;3.00;;;2.80;;
3487;SDS011;38546;48.170;11.724;2023-07-13T16:15:58;4.73;;;3.33;;
3487;SDS011;38546;48.170;11.724;2023-07-13T16:18:47;5.77;;;2.80;;
3487;SDS011;38546;48.170;11.724;2023-07-13T16:21:46;3.00;;;2.80;;
3487;SDS011;38546;48.170;11.724;2023-07-13T16:24:38;2.83;;;2.60;;
3487;SDS011;38546;48.170;11.724;2023-07-13T16:27:27;2.60;;;2.50;;
3487;SDS011;38546;48.170;11.724;2023-07-13T16:30:23;4.20;;;2.83;;
3487;SDS011;38546;48.170;11.724;2023-07-13T16:33:17;5.20;;;3.50;;
3487;SDS011;38546;48.170;11.724;2023-07-13T16:36:10;4.80;;;3.40;;
3487;SDS011;38546;48.170;11.724;2023-07-13T16:39:00;2.77;;;2.60;;
3487;SDS011;38546;48.170;11.724;2023-07-13T16:41:53;3.13;;;2.93;;
3487;SDS011;38546;48.170;11.724;2023-07-13T16:44:44;3.63;;;3.33;;
3487;SDS011;38546;48.170;11.724;2023-07-13T16:47:33;3.93;;;3.10;;
3487;SDS011;38546;48.170;11.724;2023-07-13T16:50:24;3.47;;;3.20;;
3487;SDS011;38546;48.170;11.724;2023-07-13T16:53:17;3.17;;;2.87;;
3487;SDS011;38546;48.170;11.724;2023-07-13T16:56:14;2.40;;;2.30;;
3487;SDS011;38546;48.170;11.724;2023-07-13T16:59:11;3.27;;;2.97;;
3487;SDS011;38546;48.170;11.724;2023-07-13T17:05:26;5.80;;;3.30;;
3487;SDS011;38546;48.170;11.724;2023-07-13T17:08:21;3.20;;;2.90;;
3487;SDS011;38546;48.170;11.724;2023-07-13T17:11:13;6.50;;;4.40;;
3487;SDS011;38546;48.170;11.724;2023-07-13T17:14:08;3.40;;;3.20;;
3487;SDS011;38546;48.170;11.724;2023-07-13T17:17:24;6.57;;;3.20;;
3487;SDS011;38546;48.170;11.724;2023-07-13T17:20:33;3.30;;;3.10;;
3487;SDS011;38546;48.170;11.724;2023-07-13T17:23:30;4.80;;;3.07;;
3487;SDS011;38546;48.170;11.724;2023-07-13T17:26:23;3.70;;;2.77;;
3487;SDS011;38546;48.170;11.724;2023-07-13T17:29:12;3.07;;;2.87;;
3487;SDS011;38546;48.170;11.724;2023-07-13T17:32:02;3.47;;;3.17;;
3487;SDS011;38546;48.170;11.724;2023-07-13T17:34:54;4.20;;;3.80;;
3487;SDS011;38546;48.170;11.724;2023-07-13T17:37:43;3.67;;;2.70;;
3487;SDS011;38546;48.170;11.724;2023-07-13T17:40:32;5.50;;;2.93;;
3487;SDS011;38546;48.170;11.724;2023-07-13T17:43:21;2.80;;;2.60;;